Time;durP1;ratioP1;P1;durP2;ratioP2;P2;SDS_P1;SDS_P2;PMS_P1;PMS_P2;Temp;Humidity;BMP_temperature;BMP_pressure;BME280_temperature;BME280_humidity;BME280_pressure;Samples;Min_cycle;Max_cycle;Signal;HPM_P1;HPM_P2
2022/11/26 00:12:55;;;;;;;58.92;29.10;;;;;;;2.67;80.68;100748.72;30738413;28;97249;-65
2022/11/26 00:27:57;;;;;;;50.08;25.23;;;;;;;2.90;80.65;100759.44;30738846;28;96687;-65
2022/11/26 00:42:57;;;;;;;40.05;20.50;;;;;;;3.34;80.37;100768.66;30736929;28;97099;-66
2022/11/26 00:57:58;;;;;;;38.15;19.58;;;;;;;3.58;80.12;100776.56;30736017;28;97158;-64
2022/11/26 01:12:58;;;;;;;30.20;18.17;;;;;;;3.81;79.87;100774.91;30733828;28;97132;-65
2022/11/26 01:27:58;;;;;;;39.63;22.70;;;;;;;3.89;79.83;100787.53;30768817;28;97062;-66
2022/11/26 01:43:05;;;;;;;39.60;19.38;;;;;;;3.75;79.10;100783.28;30852202;28;96862;-65
2022/11/26 01:58:11;;;;;;;37.72;22.08;;;;;;;3.82;80.05;100787.13;30852915;28;96983;-65
2022/11/26 02:13:11;;;;;;;38.65;20.23;;;;;;;4.01;79.37;100793.72;30848600;28;97506;-65
2022/11/26 02:28:30;;;;;;;41.22;22.30;;;;;;;4.11;79.79;100799.97;30848820;28;96940;-65
2022/11/26 02:43:33;;;;;;;35.00;20.13;;;;;;;3.97;79.27;100803.63;30849948;28;96763;-66
2022/11/26 02:58:35;;;;;;;40.10;21.27;;;;;;;3.98;80.25;100810.59;30868889;28;97042;-65
2022/11/26 03:13:35;;;;;;;34.08;19.02;;;;;;;3.87;80.27;100818.44;30867347;28;96949;-65
2022/11/26 03:28:36;;;;;;;32.45;18.52;;;;;;;3.88;80.47;100830.66;30865299;28;97083;-65
2022/11/26 03:43:36;;;;;;;32.50;19.55;;;;;;;3.87;80.54;100843.00;30863483;28;97274;-65
2022/11/26 03:58:36;;;;;;;30.02;17.80;;;;;;;3.84;81.04;100845.88;30859787;28;97114;-66
2022/11/26 04:13:37;;;;;;;32.33;17.70;;;;;;;3.90;81.11;100849.84;30862156;28;97265;-65
2022/11/26 04:28:37;;;;;;;32.30;17.50;;;;;;;3.83;81.55;100865.25;30858595;28;97644;-65
2022/11/26 04:43:38;;;;;;;35.13;16.45;;;;;;;3.95;81.57;100871.47;30860858;28;96685;-65
2022/11/26 04:58:38;;;;;;;29.45;14.95;;;;;;;4.09;81.72;100890.69;30855686;28;96947;-65
2022/11/26 05:13:38;;;;;;;25.08;13.50;;;;;;;4.46;82.74;100893.31;30853068;28;97205;-64
2022/11/26 05:28:39;;;;;;;17.80;9.32;;;;;;;5.01;82.94;100901.50;30851546;28;96724;-64
2022/11/26 05:43:39;;;;;;;17.48;10.02;;;;;;;5.30;82.90;100920.41;30852661;28;97026;-64
2022/11/26 05:58:42;;;;;;;17.63;10.25;;;;;;;5.52;82.96;100934.59;30851067;28;96813;-64
2022/11/26 06:13:42;;;;;;;18.67;9.63;;;;;;;5.69;82.66;100946.53;30847002;28;97489;-64
2022/11/26 06:28:42;;;;;;;15.57;8.15;;;;;;;5.83;82.60;100959.47;30848148;28;96915;-64
2022/11/26 06:43:43;;;;;;;14.85;8.10;;;;;;;5.91;82.91;100985.34;30847369;28;97290;-64
2022/11/26 06:58:43;;;;;;;14.40;9.43;;;;;;;6.01;82.52;100996.06;30847385;28;97680;-63
2022/11/26 07:13:44;;;;;;;14.75;8.95;;;;;;;6.15;83.18;101024.94;30844850;28;96976;-64
2022/11/26 07:28:46;;;;;;;12.25;7.90;;;;;;;6.26;83.13;101045.22;30843515;28;96918;-64
2022/11/26 07:43:46;;;;;;;14.48;9.15;;;;;;;6.36;82.30;101055.94;30858798;28;97117;-63
2022/11/26 07:58:47;;;;;;;11.60;7.90;;;;;;;6.51;82.99;101075.06;30857268;28;96975;-64
2022/11/26 08:13:51;;;;;;;11.50;7.07;;;;;;;6.76;82.86;101079.22;30857065;28;97047;-64
2022/11/26 08:28:52;;;;;;;12.73;6.97;;;;;;;6.88;82.37;101098.59;30856954;28;97271;-64
2022/11/26 08:43:52;;;;;;;12.20;7.13;;;;;;;6.91;81.71;101114.22;30860469;28;97868;-63
2022/11/26 08:58:52;;;;;;;8.43;5.70;;;;;;;7.11;82.16;101132.00;30929764;28;96641;-64
2022/11/26 09:13:54;;;;;;;5.63;3.53;;;;;;;7.19;81.90;101146.41;30958003;28;96611;-64
2022/11/26 09:28:54;;;;;;;7.33;4.17;;;;;;;7.43;82.02;101152.38;30807993;28;96636;-64
2022/11/26 09:44:42;;;;;;;5.40;3.70;;;;;;;7.56;81.63;101152.22;30789112;28;97427;-63
2022/11/26 09:59:45;;;;;;;6.27;4.67;;;;;;;7.55;81.59;101165.59;30771859;28;96783;-62
2022/11/26 10:15:13;;;;;;;4.80;3.40;;;;;;;7.72;81.18;101173.00;30774155;28;97370;-63
2022/11/26 10:30:24;;;;;;;4.77;2.83;;;;;;;7.94;80.43;101179.16;30773137;28;97748;-63
2022/11/26 10:45:35;;;;;;;4.67;3.27;;;;;;;7.83;80.43;101188.00;30780547;28;96811;-60
2022/11/26 11:00:38;;;;;;;4.97;3.70;;;;;;;7.86;79.51;101197.53;30737595;28;96718;-62
2022/11/26 11:15:40;;;;;;;8.33;6.23;;;;;;;7.55;79.51;101202.72;30770401;28;97315;-62
2022/11/26 11:30:43;;;;;;;13.00;8.67;;;;;;;7.26;79.22;101224.50;30789195;28;96687;-64
2022/11/26 11:45:55;;;;;;;13.50;8.40;;;;;;;7.14;79.45;101236.06;30830496;28;97158;-64
2022/11/26 12:01:23;;;;;;;17.43;11.40;;;;;;;7.06;79.30;101260.53;30846012;28;97110;-65
2022/11/26 12:16:26;;;;;;;19.73;12.67;;;;;;;7.16;79.09;101266.75;30853965;28;96818;-66
2022/11/26 12:31:48;;;;;;;18.00;12.87;;;;;;;7.20;78.04;101277.97;30853019;28;97417;-66
2022/11/26 12:47:04;;;;;;;20.37;13.80;;;;;;;7.54;78.68;101276.13;30852037;28;96829;-65
2022/11/26 13:02:26;;;;;;;19.80;12.50;;;;;;;7.78;77.14;101267.97;30847562;28;97699;-67
2022/11/26 13:17:43;;;;;;;19.83;14.30;;;;;;;7.32;77.35;101277.00;30846541;28;98453;-68
2022/11/26 13:33:05;;;;;;;20.27;12.23;;;;;;;6.98;77.08;101297.38;30844611;28;97093;-67
2022/11/26 13:48:08;;;;;;;18.20;12.43;;;;;;;6.73;77.62;101313.34;30845307;28;97313;-67
2022/11/26 14:03:45;;;;;;;22.60;13.00;;;;;;;6.53;77.58;101324.63;30845561;28;98049;-67
2022/11/26 14:18:50;;;;;;;20.20;13.10;;;;;;;6.60;78.38;101341.72;30842954;28;96825;-66
2022/11/26 14:33:56;;;;;;;16.73;12.13;;;;;;;6.26;78.22;101352.19;30819100;28;97592;-65
2022/11/26 14:48:58;;;;;;;16.83;11.68;;;;;;;6.06;78.32;101362.44;30814852;28;97067;-67
2022/11/26 15:04:01;;;;;;;23.20;12.67;;;;;;;5.91;78.19;101382.03;30803152;28;96838;-66
2022/11/26 15:19:04;;;;;;;18.20;13.30;;;;;;;5.87;78.20;101401.72;30800110;28;96741;-67
2022/11/26 15:34:07;;;;;;;20.60;13.90;;;;;;;5.88;79.09;101406.91;30798673;28;96634;-68
2022/11/26 15:49:36;;;;;;;23.60;15.47;;;;;;;5.82;78.76;101414.44;30798027;28;96927;-68
2022/11/26 16:04:41;;;;;;;23.30;16.17;;;;;;;5.75;78.64;101422.81;30846356;28;97110;-67
2022/11/26 16:19:52;;;;;;;22.40;16.13;;;;;;;5.79;79.57;101419.94;30854545;28;96969;-68
2022/11/26 16:34:52;;;;;;;32.38;19.42;;;;;;;5.74;79.33;101433.47;30854033;28;97081;-68
2022/11/26 16:49:53;;;;;;;24.42;16.60;;;;;;;5.69;78.98;101440.91;30852214;28;97090;-68
2022/11/26 17:04:54;;;;;;;32.28;19.98;;;;;;;5.72;79.10;101438.88;30740498;28;97131;-67
2022/11/26 17:19:55;;;;;;;34.03;21.48;;;;;;;5.59;79.45;101449.47;30745860;28;96833;-68
2022/11/26 17:34:55;;;;;;;41.90;22.38;;;;;;;5.58;79.66;101450.41;30736216;28;97006;-68
2022/11/26 17:49:56;;;;;;;34.85;20.42;;;;;;;5.56;79.93;101459.41;30733810;28;97202;-67
2022/11/26 18:04:56;;;;;;;42.88;23.35;;;;;;;5.50;79.53;101470.41;30733533;28;97277;-68
2022/11/26 18:19:57;;;;;;;44.72;24.35;;;;;;;5.42;79.45;101479.69;30731049;28;98447;-68
2022/11/26 18:34:57;;;;;;;45.40;24.00;;;;;;;5.46;79.87;101492.72;30731334;28;96853;-67
2022/11/26 18:49:58;;;;;;;47.47;24.48;;;;;;;5.40;79.77;101491.34;30729877;28;96727;-67
2022/11/26 19:04:58;;;;;;;52.85;25.95;;;;;;;5.33;79.95;101503.28;30728156;28;96745;-67
2022/11/26 19:19:58;;;;;;;58.13;26.25;;;;;;;5.31;79.87;101503.38;30726593;28;96785;-68
2022/11/26 19:34:59;;;;;;;58.42;25.90;;;;;;;5.27;79.47;101506.34;30736019;28;96669;-68
2022/11/26 19:49:59;;;;;;;52.45;25.90;;;;;;;5.29;80.60;101531.72;30746397;28;96726;-67
2022/11/26 20:05:00;;;;;;;60.58;26.60;;;;;;;5.26;80.09;101545.09;30744858;28;96708;-67
2022/11/26 20:20:00;;;;;;;70.10;28.45;;;;;;;5.23;80.19;101542.69;30741976;28;96850;-68
2022/11/26 20:35:01;;;;;;;62.45;25.85;;;;;;;5.15;80.33;101552.91;30741172;28;97235;-67
2022/11/26 20:50:01;;;;;;;60.67;24.13;;;;;;;5.12;80.78;101556.59;30740045;28;96976;-69
2022/11/26 21:05:02;;;;;;;61.88;26.25;;;;;;;5.14;80.82;101556.50;30737730;28;96640;-67
2022/11/26 21:20:02;;;;;;;65.05;28.10;;;;;;;5.14;80.72;101556.50;30735495;28;96777;-68
2022/11/26 21:35:03;;;;;;;55.65;26.60;;;;;;;5.12;80.94;101553.13;30736803;28;96709;-68
2022/11/26 21:50:04;;;;;;;64.10;29.05;;;;;;;5.08;80.98;101552.47;30734336;28;96651;-66
2022/11/26 22:05:04;;;;;;;58.78;25.48;;;;;;;5.07;80.94;101551.63;30733128;28;96753;-67
2022/11/26 22:20:06;;;;;;;61.65;28.52;;;;;;;5.06;81.05;101549.09;30731659;28;98291;-66
2022/11/26 22:35:08;;;;;;;57.35;27.10;;;;;;;4.97;81.16;101557.63;30732318;28;97327;-67
2022/11/26 22:50:09;;;;;;;49.00;25.50;;;;;;;4.97;81.56;101550.53;30731062;28;99109;-67
2022/11/26 23:05:10;;;;;;;46.33;22.95;;;;;;;5.05;81.63;101545.59;30736498;28;96706;-66
2022/11/26 23:20:11;;;;;;;43.95;20.13;;;;;;;4.89;81.34;101550.19;30750794;28;97107;-67
2022/11/26 23:35:11;;;;;;;43.20;20.63;;;;;;;4.80;81.42;101543.72;30841736;28;96702;-66
2022/11/26 23:50:13;;;;;;;39.83;18.27;;;;;;;4.80;81.80;101550.75;30795516;28;96564;-67
